createdAt,value
2023-05-20T00:00:01.955Z,22.10
2023-05-20T00:02:29.038Z,20.92
2023-05-20T00:04:56.215Z,37.42
2023-05-20T00:07:23.114Z,42.00
2023-05-20T00:09:49.950Z,28.80
2023-05-20T00:12:16.614Z,20.90
2023-05-20T00:14:43.386Z,22.23
2023-05-20T00:17:10.261Z,22.52
2023-05-20T00:19:36.993Z,23.50
2023-05-20T00:22:03.683Z,22.08
2023-05-20T00:24:30.443Z,22.30
2023-05-20T00:26:57.130Z,25.20
2023-05-20T00:29:23.855Z,20.25
2023-05-20T00:31:50.719Z,23.00
2023-05-20T00:34:17.528Z,20.63
2023-05-20T00:36:44.273Z,22.85
2023-05-20T00:39:11.119Z,22.00
2023-05-20T00:41:38.257Z,21.90
2023-05-20T00:44:05.121Z,25.52
2023-05-20T00:46:32.306Z,21.45
2023-05-20T00:48:59.402Z,21.00
2023-05-20T00:51:26.267Z,21.40
2023-05-20T00:53:53.524Z,20.67
2023-05-20T00:56:21.666Z,98.95
2023-05-20T00:58:48.383Z,123.22
2023-05-20T01:01:15.099Z,36.40
2023-05-20T01:03:41.946Z,24.17
2023-05-20T01:06:08.728Z,23.60
2023-05-20T01:08:35.771Z,24.23
2023-05-20T01:11:15.950Z,25.15
2023-05-20T01:13:45.554Z,24.75
2023-05-20T01:16:13.392Z,22.10
2023-05-20T01:18:43.022Z,25.80
2023-05-20T01:21:13.797Z,21.70
2023-05-20T01:23:42.046Z,20.33
2023-05-20T01:26:13.981Z,21.05
2023-05-20T01:28:43.906Z,22.02
2023-05-20T01:31:20.950Z,22.63
2023-05-20T01:33:52.078Z,22.17
2023-05-20T01:36:21.244Z,21.25
2023-05-20T01:38:49.311Z,23.20
2023-05-20T01:41:16.753Z,23.73
2023-05-20T01:43:44.594Z,24.52
2023-05-20T01:46:11.408Z,22.15
2023-05-20T01:48:38.510Z,24.38
2023-05-20T01:51:05.385Z,20.73
2023-05-20T01:53:32.128Z,97.43
2023-05-20T01:55:58.857Z,68.45
2023-05-20T01:58:25.503Z,25.38
2023-05-20T02:00:52.235Z,23.80
2023-05-20T02:03:18.959Z,22.42
2023-05-20T02:05:45.756Z,21.77
2023-05-20T02:08:12.516Z,24.17
2023-05-20T02:10:39.180Z,24.00
2023-05-20T02:13:05.946Z,23.02
2023-05-20T02:15:32.825Z,23.02
2023-05-20T02:17:59.673Z,23.70
2023-05-20T02:20:26.853Z,99.45
2023-05-20T02:22:53.587Z,37.25
2023-05-20T02:25:20.232Z,26.83
2023-05-20T02:27:46.872Z,21.95
2023-05-20T02:30:14.766Z,20.80
2023-05-20T02:32:41.429Z,24.45
2023-05-20T02:35:08.374Z,20.45
2023-05-20T02:37:35.184Z,19.83
2023-05-20T02:40:02.013Z,21.23
2023-05-20T02:42:28.604Z,21.00
2023-05-20T02:44:58.393Z,19.77
2023-05-20T02:47:25.897Z,21.52
2023-05-20T02:49:52.874Z,19.42
2023-05-20T02:52:19.563Z,20.35
2023-05-20T02:54:46.882Z,21.98
2023-05-20T02:57:13.537Z,20.50
2023-05-20T02:59:40.661Z,20.92
2023-05-20T03:02:07.510Z,22.02
2023-05-20T03:04:34.250Z,20.42
2023-05-20T03:07:01.023Z,21.38
2023-05-20T03:09:28.254Z,22.95
2023-05-20T03:11:55.037Z,24.13
2023-05-20T03:14:21.757Z,21.23
2023-05-20T03:16:48.575Z,22.08
2023-05-20T03:19:16.353Z,20.33
2023-05-20T03:21:43.848Z,21.60
2023-05-20T03:24:10.839Z,22.70
2023-05-20T03:26:38.585Z,19.60
2023-05-20T03:29:05.800Z,21.23
2023-05-20T03:31:32.560Z,22.63
2023-05-20T03:33:59.217Z,21.48
2023-05-20T03:36:25.978Z,20.25
2023-05-20T03:38:52.742Z,20.60
2023-05-20T03:41:19.456Z,24.33
2023-05-20T03:43:46.200Z,20.42
2023-05-20T03:46:12.903Z,22.42
2023-05-20T03:48:39.609Z,25.77
2023-05-20T03:51:06.577Z,23.23
2023-05-20T03:53:33.261Z,23.55
2023-05-20T03:55:59.931Z,21.75
2023-05-20T03:58:28.974Z,20.67
2023-05-20T04:00:56.263Z,19.13
2023-05-20T04:03:23.500Z,20.13
2023-05-20T04:05:50.698Z,20.70
2023-05-20T04:08:18.851Z,20.45
2023-05-20T04:10:46.230Z,22.30
2023-05-20T04:13:13.004Z,19.92
2023-05-20T04:15:39.748Z,25.33
2023-05-20T04:18:06.532Z,20.83
2023-05-20T04:20:33.267Z,22.05
2023-05-20T04:23:00.165Z,21.58
2023-05-20T04:25:27.375Z,26.42
2023-05-20T04:27:54.288Z,22.60
2023-05-20T04:30:22.016Z,22.80
2023-05-20T04:32:50.780Z,23.60
2023-05-20T04:35:18.173Z,23.88
2023-05-20T04:37:47.994Z,24.20
2023-05-20T04:40:15.165Z,24.23
2023-05-20T04:42:41.959Z,24.55
2023-05-20T04:45:08.994Z,20.27
2023-05-20T04:47:38.621Z,22.42
2023-05-20T04:50:13.583Z,21.50
2023-05-20T04:52:41.942Z,21.23
2023-05-20T04:55:10.405Z,19.83
2023-05-20T04:57:41.827Z,20.80
2023-05-20T05:00:10.851Z,24.80
2023-05-20T05:02:37.917Z,22.20
2023-05-20T05:05:05.063Z,23.70
2023-05-20T05:07:32.226Z,31.08
2023-05-20T05:09:58.970Z,39.20
2023-05-20T05:12:25.644Z,35.75
2023-05-20T05:14:52.336Z,31.55
2023-05-20T05:17:19.053Z,44.03
2023-05-20T05:19:45.732Z,30.52
2023-05-20T05:22:12.395Z,25.83
2023-05-20T05:24:39.048Z,26.33
2023-05-20T05:27:06.055Z,27.67
2023-05-20T05:29:32.757Z,25.90
2023-05-20T05:31:59.400Z,24.33
2023-05-20T05:34:26.032Z,23.95
2023-05-20T05:36:52.750Z,26.88
2023-05-20T05:39:19.602Z,29.63
2023-05-20T05:41:46.260Z,26.05
2023-05-20T05:44:12.928Z,26.35
2023-05-20T05:46:39.697Z,30.63
2023-05-20T05:49:06.364Z,90.32
2023-05-20T05:51:33.128Z,168.10
2023-05-20T05:53:59.836Z,159.63
2023-05-20T05:56:26.462Z,34.67
2023-05-20T05:58:53.249Z,61.13
2023-05-20T06:01:20.148Z,31.13
2023-05-20T06:03:47.050Z,31.20
2023-05-20T06:06:13.907Z,30.02
2023-05-20T06:08:40.656Z,26.13
2023-05-20T06:11:07.636Z,27.58
2023-05-20T06:13:34.330Z,53.10
2023-05-20T06:16:01.072Z,32.60
2023-05-20T06:18:27.959Z,32.47
2023-05-20T06:20:56.637Z,36.22
2023-05-20T06:23:23.378Z,32.70
2023-05-20T06:25:50.996Z,29.38
2023-05-20T06:28:18.101Z,26.20
2023-05-20T06:30:44.818Z,28.75
2023-05-20T06:33:11.712Z,28.63
2023-05-20T06:35:38.637Z,28.50
2023-05-20T06:38:06.062Z,29.23
2023-05-20T06:40:32.816Z,25.35
2023-05-20T06:42:59.433Z,25.80
2023-05-20T06:45:26.250Z,27.02
2023-05-20T06:47:54.474Z,28.40
2023-05-20T06:50:21.172Z,25.77
2023-05-20T06:52:47.828Z,30.15
2023-05-20T06:55:14.761Z,28.13
2023-05-20T06:57:41.430Z,29.20
2023-05-20T07:00:09.189Z,129.88
2023-05-20T07:02:36.173Z,131.43
2023-05-20T07:05:03.113Z,95.18
2023-05-20T07:07:29.766Z,43.22
2023-05-20T07:09:57.450Z,25.58
2023-05-20T07:12:24.288Z,26.45
2023-05-20T07:14:51.698Z,26.45
2023-05-20T07:17:18.400Z,27.05
2023-05-20T07:19:45.154Z,25.10
2023-05-20T07:22:12.286Z,25.17
2023-05-20T07:24:39.043Z,24.52
2023-05-20T07:27:05.835Z,27.13
2023-05-20T07:29:32.501Z,24.15
2023-05-20T07:31:59.284Z,24.75
2023-05-20T07:34:26.036Z,25.85
2023-05-20T07:36:53.820Z,24.23
2023-05-20T07:39:20.525Z,25.77
2023-05-20T07:41:47.184Z,22.90
2023-05-20T07:44:13.857Z,24.10
2023-05-20T07:46:42.000Z,39.47
2023-05-20T07:49:08.832Z,29.83
2023-05-20T07:51:35.597Z,33.40
2023-05-20T07:54:02.444Z,26.30
2023-05-20T07:56:29.250Z,32.80
2023-05-20T07:59:00.802Z,104.70
2023-05-20T08:01:27.818Z,49.78
2023-05-20T08:03:54.952Z,31.23
2023-05-20T08:06:22.015Z,26.55
2023-05-20T08:08:48.682Z,24.88
2023-05-20T08:11:15.457Z,23.40
2023-05-20T08:13:42.280Z,24.48
2023-05-20T08:16:10.436Z,24.58
2023-05-20T08:18:38.044Z,22.65
2023-05-20T08:21:09.895Z,22.67
2023-05-20T08:23:39.658Z,22.90
2023-05-20T08:26:07.833Z,19.98
2023-05-20T08:28:34.615Z,21.13
2023-05-20T08:31:04.605Z,22.13
2023-05-20T08:33:31.400Z,35.47
2023-05-20T08:35:58.807Z,33.83
2023-05-20T08:38:25.478Z,22.88
2023-05-20T08:40:56.536Z,22.80
2023-05-20T08:43:24.451Z,24.08
2023-05-20T08:45:52.667Z,23.15
2023-05-20T08:48:20.368Z,22.70
2023-05-20T08:50:52.228Z,20.95
2023-05-20T08:53:21.886Z,22.08
2023-05-20T08:56:03.049Z,19.38
2023-05-20T08:58:30.655Z,23.95
2023-05-20T09:00:58.956Z,21.00
2023-05-20T09:03:25.825Z,21.17
2023-05-20T09:05:53.956Z,20.33
2023-05-20T09:08:26.885Z,21.55
2023-05-20T09:10:54.583Z,26.55
2023-05-20T09:13:23.701Z,23.42
2023-05-20T09:15:50.645Z,24.23
2023-05-20T09:18:17.433Z,18.45
2023-05-20T09:20:47.732Z,21.80
2023-05-20T09:23:14.614Z,21.23
2023-05-20T09:25:41.591Z,18.60
2023-05-20T09:28:08.870Z,22.67
2023-05-20T09:30:35.974Z,18.75
2023-05-20T09:33:05.824Z,21.90
2023-05-20T09:35:37.774Z,18.52
2023-05-20T09:38:08.091Z,19.10
2023-05-20T09:40:37.806Z,22.83
2023-05-20T09:43:08.861Z,23.13
2023-05-20T09:45:36.090Z,20.40
2023-05-20T09:48:05.248Z,22.55
2023-05-20T09:50:32.141Z,19.33
2023-05-20T09:53:03.704Z,23.13
2023-05-20T09:55:31.111Z,19.95
2023-05-20T09:58:01.913Z,21.85
2023-05-20T10:00:28.932Z,19.80
2023-05-20T10:02:55.844Z,18.90
2023-05-20T10:05:44.376Z,19.83
2023-05-20T10:08:57.300Z,19.20
2023-05-20T10:11:44.286Z,19.48
2023-05-20T10:14:31.967Z,18.70
2023-05-20T10:17:10.102Z,19.35
2023-05-20T10:19:37.585Z,18.02
2023-05-20T10:22:05.410Z,18.08
2023-05-20T10:24:44.053Z,20.83
2023-05-20T10:27:15.782Z,16.67
2023-05-20T10:29:53.595Z,16.65
2023-05-20T10:32:33.399Z,22.08
2023-05-20T10:35:05.514Z,24.75
2023-05-20T10:37:43.694Z,17.92
2023-05-20T10:40:12.770Z,17.88
2023-05-20T10:42:40.179Z,16.88
2023-05-20T10:45:08.341Z,16.13
2023-05-20T10:47:36.250Z,18.75
2023-05-20T10:50:05.943Z,16.17
2023-05-20T10:52:39.105Z,17.13
2023-05-20T10:55:06.356Z,17.45
2023-05-20T10:57:34.640Z,18.17
2023-05-20T11:00:02.235Z,20.27
2023-05-20T11:02:29.353Z,17.27
2023-05-20T11:04:59.373Z,17.90
2023-05-20T11:07:30.382Z,17.17
2023-05-20T11:10:00.913Z,17.27
2023-05-20T11:12:28.330Z,20.17
2023-05-20T11:14:55.314Z,19.40
2023-05-20T11:17:22.071Z,30.33
2023-05-20T11:19:49.003Z,19.85
2023-05-20T11:22:15.930Z,24.30
2023-05-20T11:24:42.701Z,19.90
2023-05-20T11:27:09.653Z,88.93
2023-05-20T11:29:37.298Z,17.50
2023-05-20T11:32:04.221Z,16.75
2023-05-20T11:34:38.110Z,16.30
2023-05-20T11:37:09.875Z,16.38
2023-05-20T11:39:37.279Z,14.63
2023-05-20T11:42:04.267Z,16.45
2023-05-20T11:44:31.417Z,23.80
2023-05-20T11:47:03.273Z,17.52
2023-05-20T11:49:30.951Z,22.58
2023-05-20T11:51:58.465Z,17.50
2023-05-20T11:54:25.537Z,16.45
2023-05-20T11:56:54.806Z,14.27
2023-05-20T11:59:24.429Z,16.25
2023-05-20T12:01:51.104Z,15.75
2023-05-20T12:04:18.609Z,16.50
2023-05-20T12:06:45.814Z,16.20
2023-05-20T12:09:14.021Z,14.25
2023-05-20T12:11:41.686Z,16.25
2023-05-20T12:14:09.256Z,15.48
2023-05-20T12:16:38.163Z,13.90
2023-05-20T12:19:05.272Z,14.35
2023-05-20T12:21:32.104Z,13.50
2023-05-20T12:24:02.092Z,14.43
2023-05-20T12:26:30.123Z,16.73
2023-05-20T12:28:57.512Z,14.27
2023-05-20T12:31:25.683Z,15.55
2023-05-20T12:33:52.405Z,15.85
2023-05-20T12:36:19.805Z,14.63
2023-05-20T12:38:46.935Z,15.00
2023-05-20T12:41:13.769Z,14.32
2023-05-20T12:43:40.565Z,14.85
2023-05-20T12:46:07.382Z,24.20
2023-05-20T12:48:34.461Z,20.35
2023-05-20T12:51:01.433Z,19.33
2023-05-20T12:53:28.215Z,21.98
2023-05-20T12:55:55.028Z,15.75
2023-05-20T12:58:21.900Z,14.45
2023-05-20T13:00:48.750Z,13.63
2023-05-20T13:03:15.624Z,13.55
2023-05-20T13:05:42.456Z,14.55
2023-05-20T13:08:10.277Z,15.13
2023-05-20T13:10:37.678Z,15.98
2023-05-20T13:13:04.928Z,15.02
2023-05-20T13:15:33.258Z,15.20
2023-05-20T13:18:01.592Z,16.58
2023-05-20T13:20:29.406Z,16.00
2023-05-20T13:22:56.055Z,20.30
2023-05-20T13:25:22.756Z,27.02
2023-05-20T13:27:49.404Z,16.60
2023-05-20T13:30:16.157Z,15.50
2023-05-20T13:32:42.885Z,15.40
2023-05-20T13:35:09.801Z,15.82
2023-05-20T13:37:36.525Z,14.90
2023-05-20T13:40:03.475Z,15.80
2023-05-20T13:42:30.354Z,14.93
2023-05-20T13:44:57.213Z,15.13
2023-05-20T13:47:24.585Z,14.25
2023-05-20T13:49:51.300Z,13.57
2023-05-20T13:52:17.936Z,18.88
2023-05-20T13:54:47.021Z,15.98
2023-05-20T13:57:13.714Z,15.38
2023-05-20T13:59:40.375Z,15.48
2023-05-20T14:02:07.790Z,20.42
2023-05-20T14:04:38.178Z,16.17
2023-05-20T14:07:07.667Z,13.13
2023-05-20T14:09:36.494Z,15.77
2023-05-20T14:12:03.555Z,15.02
2023-05-20T14:14:30.221Z,15.77
2023-05-20T14:16:56.851Z,17.75
2023-05-20T14:19:23.504Z,15.05
2023-05-20T14:21:50.252Z,14.60
2023-05-20T14:24:17.066Z,16.17
2023-05-20T14:26:43.921Z,17.08
2023-05-20T14:29:10.857Z,15.77
2023-05-20T14:31:39.335Z,18.98
2023-05-20T14:34:06.166Z,15.32
2023-05-20T14:36:33.067Z,16.02
2023-05-20T14:38:59.751Z,18.42
2023-05-20T14:41:26.474Z,19.67
2023-05-20T14:43:53.188Z,19.02
2023-05-20T14:46:19.936Z,17.85
2023-05-20T14:48:46.655Z,15.75
2023-05-20T14:51:13.463Z,15.90
2023-05-20T14:53:40.257Z,16.27
2023-05-20T14:56:06.995Z,16.20
2023-05-20T14:58:33.713Z,19.38
2023-05-20T15:01:00.394Z,17.98
2023-05-20T15:03:28.100Z,16.70
2023-05-20T15:05:54.956Z,25.15
2023-05-20T15:08:21.665Z,30.70
2023-05-20T15:10:48.422Z,25.02
2023-05-20T15:13:15.112Z,17.38
2023-05-20T15:15:41.932Z,19.25
2023-05-20T15:18:08.679Z,16.98
2023-05-20T15:20:35.313Z,14.57
2023-05-20T15:23:02.081Z,16.95
2023-05-20T15:25:28.776Z,16.70
2023-05-20T15:27:55.550Z,15.30
2023-05-20T15:30:22.877Z,16.90
2023-05-20T15:32:49.799Z,18.75
2023-05-20T15:35:16.707Z,16.45
2023-05-20T15:37:43.425Z,16.65
2023-05-20T15:40:11.350Z,17.48
2023-05-20T15:42:38.001Z,17.85
2023-05-20T15:45:04.948Z,21.85
2023-05-20T15:47:31.807Z,17.00
2023-05-20T15:49:58.536Z,17.40
2023-05-20T15:52:25.253Z,18.17
2023-05-20T15:54:52.039Z,16.33
2023-05-20T15:57:18.811Z,17.13
2023-05-20T15:59:45.552Z,17.88
2023-05-20T16:02:12.391Z,29.10
2023-05-20T16:04:39.040Z,19.65
2023-05-20T16:07:05.834Z,17.33
2023-05-20T16:09:32.626Z,19.20
2023-05-20T16:11:59.349Z,18.92
2023-05-20T16:14:26.154Z,25.48
2023-05-20T16:16:52.949Z,21.20
2023-05-20T16:19:19.639Z,17.50
2023-05-20T16:21:46.389Z,18.75
2023-05-20T16:24:13.236Z,16.58
2023-05-20T16:26:39.958Z,17.35
2023-05-20T16:29:06.908Z,18.40
2023-05-20T16:31:33.723Z,17.88
2023-05-20T16:34:00.499Z,20.25
2023-05-20T16:36:27.467Z,17.45
2023-05-20T16:38:54.192Z,16.80
2023-05-20T16:41:20.985Z,16.70
2023-05-20T16:43:47.861Z,17.00
2023-05-20T16:46:15.004Z,16.55
2023-05-20T16:48:42.670Z,17.35
2023-05-20T16:51:09.537Z,16.02
2023-05-20T16:53:36.468Z,15.80
2023-05-20T16:56:03.763Z,16.67
2023-05-20T16:58:31.123Z,17.02
2023-05-20T17:00:57.908Z,17.95
2023-05-20T17:03:24.621Z,18.38
2023-05-20T17:05:51.327Z,13.77
2023-05-20T17:08:18.401Z,20.50
2023-05-20T17:10:45.397Z,16.60
2023-05-20T17:13:12.084Z,13.63
2023-05-20T17:15:39.605Z,19.08
2023-05-20T17:18:06.410Z,18.17
2023-05-20T17:20:33.570Z,18.60
2023-05-20T17:23:00.749Z,29.60
2023-05-20T17:25:27.475Z,24.52
2023-05-20T17:27:54.255Z,14.68
2023-05-20T17:30:21.167Z,15.18
2023-05-20T17:32:47.917Z,16.83
2023-05-20T17:35:14.801Z,14.50
2023-05-20T17:37:41.738Z,15.43
2023-05-20T17:40:09.213Z,15.48
2023-05-20T17:42:36.084Z,16.23
2023-05-20T17:45:02.798Z,14.85
2023-05-20T17:47:29.571Z,18.42
2023-05-20T17:49:56.440Z,14.40
2023-05-20T17:52:23.182Z,14.23
2023-05-20T17:54:49.915Z,15.02
2023-05-20T17:57:16.858Z,18.58
2023-05-20T17:59:45.742Z,24.38
2023-05-20T18:02:12.736Z,16.60
2023-05-20T18:04:39.639Z,17.27
2023-05-20T18:07:07.571Z,15.85
2023-05-20T18:09:34.287Z,13.70
2023-05-20T18:12:01.142Z,13.27
2023-05-20T18:14:27.952Z,15.80
2023-05-20T18:16:54.904Z,14.02
2023-05-20T18:19:21.812Z,14.63
2023-05-20T18:21:48.719Z,14.18
2023-05-20T18:24:16.770Z,14.40
2023-05-20T18:26:43.836Z,13.68
2023-05-20T18:29:12.430Z,17.85
2023-05-20T18:31:40.385Z,14.93
2023-05-20T18:34:08.062Z,15.05
2023-05-20T18:36:35.147Z,12.82
2023-05-20T18:39:01.880Z,18.30
2023-05-20T18:41:39.489Z,19.48
2023-05-20T18:44:14.240Z,17.25
2023-05-20T18:46:41.051Z,36.25
2023-05-20T18:49:08.130Z,15.27
2023-05-20T18:51:35.063Z,17.02
2023-05-20T18:54:01.873Z,20.05
2023-05-20T18:56:28.956Z,23.98
2023-05-20T18:58:55.610Z,17.95
2023-05-20T19:01:24.074Z,16.45
2023-05-20T19:03:50.876Z,18.58
2023-05-20T19:06:18.050Z,14.52
2023-05-20T19:08:44.883Z,16.58
2023-05-20T19:11:11.676Z,16.15
2023-05-20T19:13:38.369Z,15.45
2023-05-20T19:16:05.642Z,21.45
2023-05-20T19:18:32.391Z,15.63
2023-05-20T19:20:59.013Z,36.13
2023-05-20T19:23:26.053Z,25.85
2023-05-20T19:25:52.724Z,25.55
2023-05-20T19:28:19.520Z,63.42
2023-05-20T19:30:46.535Z,34.35
2023-05-20T19:33:13.308Z,19.20
2023-05-20T19:35:39.952Z,23.10
2023-05-20T19:38:06.997Z,18.67
2023-05-20T19:40:35.082Z,27.77
2023-05-20T19:43:01.904Z,32.60
2023-05-20T19:45:28.665Z,18.73
2023-05-20T19:47:56.738Z,16.38
2023-05-20T19:50:23.720Z,17.27
2023-05-20T19:52:50.509Z,21.33
2023-05-20T19:55:17.220Z,18.88
2023-05-20T19:57:46.713Z,18.27
2023-05-20T20:00:14.015Z,15.93
2023-05-20T20:02:41.489Z,20.63
2023-05-20T20:05:08.834Z,22.73
2023-05-20T20:07:35.655Z,18.98
2023-05-20T20:10:02.548Z,19.02
2023-05-20T20:12:29.291Z,57.05
2023-05-20T20:14:56.401Z,43.95
2023-05-20T20:17:23.749Z,94.32
2023-05-20T20:19:53.354Z,71.72
2023-05-20T20:22:20.340Z,29.27
2023-05-20T20:24:47.632Z,19.02
2023-05-20T20:27:14.347Z,20.58
2023-05-20T20:29:43.778Z,20.95
2023-05-20T20:32:11.820Z,20.60
2023-05-20T20:34:38.625Z,20.08
2023-05-20T20:37:06.943Z,21.02
2023-05-20T20:39:34.841Z,22.85
2023-05-20T20:42:03.010Z,21.08
2023-05-20T20:44:29.762Z,24.17
2023-05-20T20:46:58.410Z,19.50
2023-05-20T20:49:27.644Z,18.90
2023-05-20T20:51:55.153Z,19.35
2023-05-20T20:54:21.879Z,20.58
2023-05-20T20:56:50.001Z,22.02
2023-05-20T20:59:16.789Z,21.02
2023-05-20T21:01:44.785Z,22.20
2023-05-20T21:04:14.097Z,21.15
2023-05-20T21:06:42.174Z,22.85
2023-05-20T21:09:09.524Z,24.63
2023-05-20T21:11:38.314Z,20.40
2023-05-20T21:14:05.283Z,23.95
2023-05-20T21:16:32.028Z,56.92
2023-05-20T21:18:58.944Z,52.35
2023-05-20T21:21:26.079Z,41.45
2023-05-20T21:23:54.250Z,73.47
2023-05-20T21:26:24.864Z,31.63
2023-05-20T21:28:52.427Z,22.90
2023-05-20T21:31:19.428Z,22.20
2023-05-20T21:33:46.322Z,22.20
2023-05-20T21:36:13.016Z,24.40
2023-05-20T21:38:39.933Z,23.02
2023-05-20T21:41:06.949Z,20.23
2023-05-20T21:43:33.684Z,21.00
2023-05-20T21:46:00.565Z,24.33
2023-05-20T21:48:27.336Z,119.22
2023-05-20T21:50:54.008Z,37.22
2023-05-20T21:53:20.718Z,95.80
2023-05-20T21:55:47.422Z,56.40
2023-05-20T21:58:14.351Z,35.83
2023-05-20T22:00:41.106Z,37.95
2023-05-20T22:03:07.966Z,36.05
2023-05-20T22:05:35.143Z,59.97
2023-05-20T22:08:02.034Z,44.05
2023-05-20T22:10:28.890Z,38.83
2023-05-20T22:12:55.833Z,72.60
2023-05-20T22:15:23.046Z,45.92
2023-05-20T22:17:49.815Z,56.70
2023-05-20T22:20:16.661Z,137.07
2023-05-20T22:22:43.428Z,72.95
2023-05-20T22:25:11.074Z,80.05
2023-05-20T22:27:38.719Z,45.33
2023-05-20T22:30:08.262Z,29.05
2023-05-20T22:32:34.945Z,42.97
2023-05-20T22:35:01.754Z,70.93
2023-05-20T22:37:31.127Z,24.90
2023-05-20T22:39:57.937Z,170.63
2023-05-20T22:42:24.603Z,303.48
2023-05-20T22:44:51.427Z,118.30
2023-05-20T22:47:18.380Z,32.42
2023-05-20T22:49:45.646Z,28.10
2023-05-20T22:52:13.042Z,27.30
2023-05-20T22:54:39.838Z,27.15
2023-05-20T22:57:06.605Z,25.65
2023-05-20T22:59:34.376Z,27.10
2023-05-20T23:02:01.821Z,27.50
2023-05-20T23:04:28.684Z,25.95
2023-05-20T23:06:56.754Z,28.70
2023-05-20T23:09:24.593Z,25.15
2023-05-20T23:11:51.241Z,28.67
2023-05-20T23:14:20.118Z,27.52
2023-05-20T23:16:47.058Z,31.45
2023-05-20T23:19:14.432Z,26.13
2023-05-20T23:21:41.148Z,28.92
2023-05-20T23:24:07.888Z,25.33
2023-05-20T23:26:34.669Z,28.15
2023-05-20T23:29:01.571Z,30.73
2023-05-20T23:31:30.101Z,25.55
2023-05-20T23:34:00.000Z,27.75
2023-05-20T23:36:29.138Z,24.10
2023-05-20T23:38:56.407Z,35.58
2023-05-20T23:41:23.686Z,27.45
2023-05-20T23:43:50.513Z,28.27
2023-05-20T23:46:18.663Z,26.90
2023-05-20T23:48:48.254Z,27.45
2023-05-20T23:51:16.466Z,29.75
2023-05-20T23:53:44.214Z,26.33
2023-05-20T23:56:11.291Z,30.27
2023-05-20T23:58:38.277Z,30.67
